Time;durP1;ratioP1;P1;durP2;ratioP2;P2;SDS_P1;SDS_P2;PMS_P1;PMS_P2;Temp;Humidity;BMP_temperature;BMP_pressure;BME280_temperature;BME280_humidity;BME280_pressure;Samples;Min_cycle;Max_cycle;Signal;HPM_P1;HPM_P2
2021/07/11 15:24:12;;;;;;;13.10;5.50;;;;;;;32.22;39.67;98931.40;2180510;82;21046;-69
2021/07/11 15:27:13;;;;;;;12.47;4.90;;;;;;;31.58;40.15;98933.75;2170959;82;21070;-71
2021/07/11 15:30:13;;;;;;;12.50;5.20;;;;;;;30.78;41.52;98927.80;2169425;82;21526;-70
2021/07/11 15:33:18;;;;;;;19.15;6.83;;;;;;;30.52;42.02;98924.28;2169181;82;21043;-70
2021/07/11 15:36:17;;;;;;;16.12;6.10;;;;;;;30.72;42.33;98920.86;2142739;82;21023;-69
2021/07/11 15:39:17;;;;;;;14.20;5.20;;;;;;;31.87;40.36;98920.44;2169616;82;21054;-69
2021/07/11 15:42:19;;;;;;;15.85;5.40;;;;;;;32.24;39.57;98914.89;2169567;82;20990;-70
2021/07/11 15:45:19;;;;;;;13.45;5.67;;;;;;;32.42;39.44;98903.95;2169115;82;21038;-71
2021/07/11 15:48:21;;;;;;;12.88;4.95;;;;;;;32.25;39.17;98905.19;2169608;82;21035;-71
2021/07/11 15:51:22;;;;;;;;;;;;;;;34.25;37.22;98894.66;2180810;82;21037;-73
2021/07/11 15:54:23;;;;;;;13.62;5.05;;;;;;;35.76;34.53;98893.73;2173098;82;20122;-71
2021/07/11 15:57:23;;;;;;;16.80;5.15;;;;;;;36.68;33.93;98891.84;2174471;82;21030;-71
2021/07/11 16:00:24;;;;;;;11.88;4.70;;;;;;;37.43;32.18;98895.79;2176146;82;21005;-71
2021/07/11 16:03:25;;;;;;;12.07;4.60;;;;;;;38.03;30.25;98884.98;2181595;82;21535;-73
2021/07/11 16:06:27;;;;;;;12.75;4.75;;;;;;;38.72;30.72;98891.00;2181551;82;21033;-73
2021/07/11 16:09:28;;;;;;;13.15;4.67;;;;;;;39.07;28.17;98902.41;2182019;81;20996;-71
2021/07/11 16:12:29;;;;;;;11.83;4.58;;;;;;;39.13;28.36;98902.68;2182062;81;21475;-73
2021/07/11 16:15:29;;;;;;;11.50;4.83;;;;;;;38.39;28.73;98911.85;2181850;81;21037;-73
2021/07/11 16:18:30;;;;;;;10.05;4.50;;;;;;;38.36;29.24;98898.71;2181786;82;21055;-74
2021/07/11 16:21:30;;;;;;;13.28;4.70;;;;;;;39.05;27.77;98892.28;2182168;82;21076;-71
2021/07/11 16:24:32;;;;;;;12.25;4.30;;;;;;;39.45;27.66;98891.02;2179997;82;20994;-72
2021/07/11 16:27:32;;;;;;;10.40;4.97;;;;;;;39.60;27.50;98886.86;2175073;82;20995;-72
2021/07/11 16:30:34;;;;;;;10.72;4.40;;;;;;;40.47;27.25;98879.08;2178210;82;21039;-72
2021/07/11 16:33:36;;;;;;;12.63;5.17;;;;;;;39.58;26.95;98875.89;2178810;81;21020;-71
2021/07/11 16:36:37;;;;;;;16.17;6.03;;;;;;;38.85;28.05;98877.26;2179351;82;21004;-72
2021/07/11 16:39:38;;;;;;;19.35;6.28;;;;;;;36.85;29.94;98891.70;2180281;82;20964;-71
2021/07/11 16:42:38;;;;;;;12.35;5.25;;;;;;;35.24;31.02;98893.13;2180878;82;20977;-72
2021/07/11 16:45:38;;;;;;;11.68;5.05;;;;;;;33.83;33.19;98893.13;2180891;82;21036;-73
2021/07/11 16:48:39;;;;;;;13.03;5.12;;;;;;;34.36;32.99;98895.96;2182107;82;20972;-73
2021/07/11 16:51:40;;;;;;;15.23;6.00;;;;;;;34.05;33.30;98891.06;2182394;81;21008;-71
2021/07/11 16:54:43;;;;;;;15.15;5.53;;;;;;;32.43;35.85;98898.82;2181708;81;21036;-71
2021/07/11 16:57:43;;;;;;;;;;;;;;;31.22;38.15;98892.88;2184675;82;21040;-71
2021/07/11 17:00:44;;;;;;;15.40;5.70;;;;;;;30.51;39.29;98889.61;2182461;82;20110;-71
2021/07/11 17:03:44;;;;;;;15.98;5.85;;;;;;;29.72;40.99;98884.53;2182417;81;20949;-72
2021/07/11 17:06:45;;;;;;;15.57;6.10;;;;;;;29.15;42.41;98892.44;2186000;81;21024;-71
2021/07/11 17:09:46;;;;;;;17.60;6.53;;;;;;;28.71;44.05;98892.64;2186109;81;21467;-71
2021/07/11 17:12:46;;;;;;;16.35;6.35;;;;;;;28.43;44.05;98892.83;2185752;81;21476;-71
2021/07/11 17:15:46;;;;;;;16.30;6.43;;;;;;;28.25;44.74;98902.91;2185971;81;21088;-71
2021/07/11 17:18:47;;;;;;;19.53;7.00;;;;;;;28.10;45.66;98911.17;2186170;81;20995;-71
2021/07/11 17:21:47;;;;;;;17.13;6.37;;;;;;;27.96;46.99;98918.39;2186203;81;20964;-72
2021/07/11 17:24:48;;;;;;;16.87;6.10;;;;;;;27.81;47.27;98930.17;2186176;81;20972;-72
2021/07/11 17:27:48;;;;;;;16.07;6.27;;;;;;;27.69;47.64;98941.73;2186091;81;20984;-71
2021/07/11 17:30:49;;;;;;;17.87;6.33;;;;;;;27.52;47.48;98957.41;2186101;81;21571;-71
2021/07/11 17:33:49;;;;;;;20.27;7.00;;;;;;;27.37;47.36;98965.61;2185950;81;21031;-71
2021/07/11 17:36:50;;;;;;;18.23;6.87;;;;;;;27.28;47.49;98968.45;2185912;81;21714;-71
2021/07/11 17:39:50;;;;;;;18.87;7.80;;;;;;;27.17;48.06;98957.39;2185989;81;20980;-71
2021/07/11 17:42:51;;;;;;;19.30;7.30;;;;;;;26.97;48.55;98957.59;2186030;81;21084;-72
2021/07/11 17:45:51;;;;;;;18.53;7.97;;;;;;;26.82;48.50;98957.37;2185605;81;20997;-71
2021/07/11 17:48:51;;;;;;;23.57;10.10;;;;;;;26.64;48.95;98978.84;2186069;81;20984;-71
2021/07/11 17:51:52;;;;;;;22.40;8.70;;;;;;;26.54;49.21;99001.20;2185927;81;21535;-71
2021/07/11 17:54:52;;;;;;;20.83;7.87;;;;;;;26.41;49.90;99008.63;2185904;81;21525;-71
2021/07/11 17:57:55;;;;;;;21.20;9.28;;;;;;;26.27;50.45;99004.95;2160358;81;21027;-71
2021/07/11 18:00:55;;;;;;;21.70;4.53;;;;;;;26.11;50.89;99008.72;2185943;81;20980;-71
2021/07/11 18:03:55;;;;;;;21.53;3.97;;;;;;;25.84;49.86;99067.47;2185891;81;21087;-72
2021/07/11 18:06:56;;;;;;;22.10;3.40;;;;;;;25.15;50.38;99087.29;2185429;81;20996;-72
2021/07/11 18:09:56;;;;;;;13.93;3.40;;;;;;;24.52;50.60;99063.30;2186078;81;21028;-72
2021/07/11 18:16:35;;;;;;;98.03;61.75;;;;;;;23.66;52.29;99067.67;2185559;81;21537;-72
2021/07/11 18:19:35;;;;;;;18.73;4.57;;;;;;;23.29;52.25;99090.53;2185848;81;21039;-71
2021/07/11 18:22:36;;;;;;;17.77;4.33;;;;;;;22.99;53.22;99086.16;2186217;81;21023;-71
2021/07/11 18:25:36;;;;;;;16.93;4.40;;;;;;;22.66;53.91;99080.28;2111596;79;21154;-63
2021/07/11 18:28:36;;;;;;;16.17;4.27;;;;;;;22.49;54.48;99084.77;2052677;87;21043;-63
2021/07/11 18:31:37;;;;;;;16.23;4.47;;;;;;;22.38;55.37;99074.89;2052651;87;21565;-63
2021/07/11 18:34:39;;;;;;;18.20;4.33;;;;;;;22.23;55.97;99081.34;2052639;87;20985;-63
2021/07/11 18:37:40;;;;;;;20.43;4.80;;;;;;;22.11;57.06;99070.95;2052237;87;21042;-63
2021/07/11 18:40:40;;;;;;;15.33;3.63;;;;;;;21.91;57.73;99061.52;2052364;87;21026;-63
2021/07/11 18:43:41;;;;;;;20.10;4.07;;;;;;;21.73;57.89;99056.28;2052613;87;20967;-63
2021/07/11 18:46:42;;;;;;;17.43;3.90;;;;;;;21.57;58.65;99052.52;2052515;87;21047;-63
2021/07/11 18:49:42;;;;;;;15.28;4.22;;;;;;;21.44;58.79;99043.58;2052510;87;20987;-63
2021/07/11 18:52:43;;;;;;;23.30;7.20;;;;;;;21.21;59.99;99037.12;2052350;87;21004;-63
2021/07/11 18:55:43;;;;;;;20.90;4.47;;;;;;;20.86;61.72;99042.38;2052278;87;21608;-63
2021/07/11 18:58:45;;;;;;;17.23;4.43;;;;;;;20.53;63.78;99050.05;2052482;87;21517;-63
2021/07/11 19:01:46;;;;;;;18.98;5.00;;;;;;;20.21;64.44;99045.22;2052376;87;21138;-63
2021/07/11 19:04:46;;;;;;;19.42;5.80;;;;;;;19.97;65.62;99021.34;2052740;87;20999;-63
2021/07/11 19:07:46;;;;;;;18.80;5.35;;;;;;;19.81;65.75;99011.82;2052646;87;21067;-63
2021/07/11 19:10:47;;;;;;;23.67;6.10;;;;;;;19.86;66.46;99009.56;2052652;87;21486;-63
2021/07/11 19:13:49;;;;;;;19.10;5.87;;;;;;;19.80;67.35;99021.64;2052594;87;21566;-63
2021/07/11 19:16:52;;;;;;;19.15;6.17;;;;;;;19.78;66.10;99038.20;2052484;87;21021;-63
2021/07/11 19:19:56;;;;;;;21.37;6.72;;;;;;;19.92;66.91;99051.55;2052505;87;20967;-63
2021/07/11 19:23:00;;;;;;;21.55;6.00;;;;;;;19.99;67.15;99057.95;2052318;87;21536;-64
2021/07/11 19:26:00;;;;;;;17.60;5.20;;;;;;;19.96;67.26;99057.42;2052128;87;21520;-64
2021/07/11 19:29:01;;;;;;;20.60;5.28;;;;;;;19.99;67.21;99041.98;2052507;87;21058;-64
2021/07/11 19:32:03;;;;;;;19.00;5.47;;;;;;;19.79;67.78;99015.14;2052615;87;21015;-64
2021/07/11 19:35:03;;;;;;;16.87;5.20;;;;;;;19.79;67.78;99015.14;2052317;87;21035;-64
2021/07/11 19:38:04;;;;;;;20.60;5.33;;;;;;;19.77;69.14;98999.28;2052585;87;21137;-64
2021/07/11 19:41:04;;;;;;;17.98;5.28;;;;;;;19.64;70.97;98975.69;2052064;87;21590;-64
2021/07/11 19:44:06;;;;;;;17.67;5.05;;;;;;;19.42;72.59;98965.42;2052171;87;21636;-64
2021/07/11 19:47:09;;;;;;;19.80;5.35;;;;;;;19.25;71.26;98954.59;2052331;87;21506;-64
2021/07/11 19:50:10;;;;;;;21.55;6.10;;;;;;;19.27;70.83;98977.05;2045917;87;21090;-64
2021/07/11 19:53:10;;;;;;;16.27;5.50;;;;;;;19.37;72.64;99027.87;2052615;87;21003;-64
2021/07/11 19:56:11;;;;;;;20.37;5.60;;;;;;;19.33;72.25;99010.52;2052031;87;21027;-64
2021/07/11 19:59:11;;;;;;;18.55;5.15;;;;;;;19.29;72.20;98989.69;2052162;87;21027;-64
2021/07/11 20:02:12;;;;;;;19.98;6.35;;;;;;;19.21;73.20;99008.53;2052468;87;21090;-64
2021/07/11 20:05:13;;;;;;;18.90;5.92;;;;;;;19.18;72.57;98992.05;2052409;87;21027;-64
2021/07/11 20:08:15;;;;;;;19.20;6.53;;;;;;;19.21;72.98;99017.02;2052353;87;21564;-64
2021/07/11 20:11:15;;;;;;;17.85;5.85;;;;;;;19.21;73.11;98990.43;2052381;87;21058;-64
2021/07/11 20:14:17;;;;;;;19.35;5.67;;;;;;;19.13;73.18;98983.16;2052535;87;21059;-64
2021/07/11 20:17:17;;;;;;;16.95;5.55;;;;;;;19.11;73.13;98994.94;2052288;87;21058;-64
2021/07/11 20:20:19;;;;;;;18.75;5.50;;;;;;;19.11;73.15;98986.97;2052249;87;21055;-64
2021/07/11 20:23:20;;;;;;;17.77;6.05;;;;;;;19.11;73.05;98979.82;2052458;87;21034;-64
2021/07/11 20:26:21;;;;;;;20.70;7.40;;;;;;;19.18;73.84;98986.23;2052103;87;21077;-64
2021/07/11 20:29:21;;;;;;;19.82;8.20;;;;;;;19.20;74.62;98968.80;2052361;87;21619;-64
2021/07/11 20:32:21;;;;;;;21.07;8.75;;;;;;;19.20;77.78;98974.13;2052340;87;21540;-64
2021/07/11 20:35:22;;;;;;;24.52;8.38;;;;;;;19.15;75.12;98966.59;2052027;87;21019;-64
2021/07/11 20:38:22;;;;;;;25.30;8.33;;;;;;;19.12;74.81;98966.88;2052204;87;21094;-64
2021/07/11 20:41:23;;;;;;;24.35;9.03;;;;;;;19.15;75.20;98969.72;2052357;87;21031;-64
2021/07/11 20:44:23;;;;;;;24.10;9.58;;;;;;;19.19;75.49;98971.97;2052135;87;21125;-64
2021/07/11 20:47:23;;;;;;;21.90;9.05;;;;;;;19.21;75.47;98955.86;2052450;87;21034;-64
2021/07/11 20:50:24;;;;;;;21.68;8.63;;;;;;;19.21;76.12;98950.55;2052449;87;21043;-64
2021/07/11 20:53:24;;;;;;;22.93;9.30;;;;;;;19.19;75.82;98944.52;2052316;87;20967;-64
2021/07/11 20:56:25;;;;;;;20.65;8.35;;;;;;;19.27;75.97;98934.00;2052342;87;21558;-64
2021/07/11 20:59:27;;;;;;;21.82;8.85;;;;;;;19.27;75.97;98934.00;2052572;87;21031;-64
2021/07/11 21:02:27;;;;;;;22.90;8.75;;;;;;;19.34;75.80;98929.77;2052348;87;21035;-64
2021/07/11 21:05:28;;;;;;;21.10;8.28;;;;;;;19.35;76.38;98912.84;2052318;87;21035;-64
2021/07/11 21:08:28;;;;;;;22.35;9.00;;;;;;;19.34;76.11;98903.68;2052342;87;21062;-64
2021/07/11 21:11:29;;;;;;;24.70;9.53;;;;;;;19.34;77.20;98903.68;2052340;87;21054;-64
2021/07/11 21:14:29;;;;;;;23.57;8.38;;;;;;;19.26;77.01;98895.59;2052349;87;21031;-64
2021/07/11 21:17:31;;;;;;;20.80;8.50;;;;;;;19.17;76.91;98892.00;2052329;87;21003;-64
2021/07/11 21:20:31;;;;;;;21.73;8.30;;;;;;;19.17;76.61;98884.02;2052710;87;21039;-64
2021/07/11 21:23:32;;;;;;;24.77;10.03;;;;;;;19.19;76.64;98886.89;2052455;87;21067;-64
2021/07/11 21:26:33;;;;;;;19.87;7.40;;;;;;;19.26;76.39;98896.92;2046976;87;21582;-64
2021/07/11 21:29:34;;;;;;;18.52;7.03;;;;;;;19.29;76.80;98895.30;2037460;87;21059;-64
2021/07/11 21:32:34;;;;;;;22.77;8.03;;;;;;;19.24;76.82;98897.55;2037988;87;21040;-64
2021/07/11 21:35:35;;;;;;;18.80;7.10;;;;;;;19.20;76.87;98896.52;2037965;87;21063;-64
2021/07/11 21:38:35;;;;;;;17.00;6.28;;;;;;;19.20;76.68;98893.86;2037516;87;21032;-64
2021/07/11 21:41:36;;;;;;;18.10;6.33;;;;;;;19.22;76.34;98893.70;2037764;87;21490;-64
2021/07/11 21:44:37;;;;;;;18.95;6.00;;;;;;;19.25;76.23;98900.56;2037456;87;21545;-64
2021/07/11 21:47:37;;;;;;;17.30;5.80;;;;;;;19.24;76.14;98888.23;2037768;87;21020;-64
2021/07/11 21:50:37;;;;;;;16.50;5.17;;;;;;;19.23;75.83;98885.26;2038113;87;21011;-64
2021/07/11 21:53:38;;;;;;;18.15;6.08;;;;;;;19.20;75.89;98875.75;2037865;87;21111;-64
2021/07/11 21:56:38;;;;;;;16.45;5.90;;;;;;;19.18;75.79;98881.22;2037880;87;21031;-64
2021/07/11 21:59:39;;;;;;;17.92;6.35;;;;;;;19.15;75.93;98884.17;2037714;87;21542;-64
2021/07/11 22:02:39;;;;;;;17.52;5.53;;;;;;;19.08;76.41;98882.23;2037742;87;21103;-64
2021/07/11 22:05:40;;;;;;;14.87;5.45;;;;;;;18.99;77.36;98891.45;2037351;87;21122;-64
2021/07/11 22:08:41;;;;;;;16.62;5.78;;;;;;;18.90;77.04;98896.80;2037962;87;21047;-64
2021/07/11 22:11:41;;;;;;;16.80;5.87;;;;;;;18.85;76.77;98898.53;2037750;87;21004;-64
2021/07/11 22:14:41;;;;;;;15.50;5.42;;;;;;;18.82;76.67;98900.12;2037820;87;21008;-64
2021/07/11 22:17:42;;;;;;;18.32;5.95;;;;;;;18.81;76.61;98895.31;2037805;87;21577;-64
2021/07/11 22:20:42;;;;;;;23.85;6.92;;;;;;;18.79;76.39;98902.60;2037842;87;21047;-64
2021/07/11 22:23:43;;;;;;;17.50;6.05;;;;;;;18.77;76.15;98911.19;2037690;87;21020;-64
2021/07/11 22:26:43;;;;;;;19.40;6.50;;;;;;;18.79;76.04;98915.03;2042724;87;21027;-64
2021/07/11 22:29:43;;;;;;;15.83;5.47;;;;;;;18.84;76.38;98920.77;2052301;87;21010;-64
2021/07/11 22:32:44;;;;;;;19.80;6.28;;;;;;;18.82;76.06;98930.68;2052316;87;21086;-64
2021/07/11 22:35:44;;;;;;;21.12;7.15;;;;;;;18.72;76.13;98933.86;2052270;87;20975;-64
2021/07/11 22:38:46;;;;;;;21.37;7.35;;;;;;;18.69;76.29;98929.66;2052098;87;21509;-64
2021/07/11 22:41:48;;;;;;;23.87;9.30;;;;;;;18.73;76.23;98924.91;2052437;87;21067;-64
2021/07/11 22:44:49;;;;;;;32.95;14.25;;;;;;;18.70;76.10;98922.91;2052386;87;20991;-64
2021/07/11 22:47:52;;;;;;;28.40;12.00;;;;;;;18.68;76.28;98924.84;2052293;87;21026;-64
2021/07/11 22:50:51;;;;;;;20.75;8.75;;;;;;;18.68;76.27;98932.81;2046084;87;21063;-64
2021/07/11 22:53:52;;;;;;;23.87;8.70;;;;;;;18.64;76.11;98927.94;2052325;87;21058;-64
2021/07/11 22:56:53;;;;;;;19.65;7.70;;;;;;;18.45;76.73;98937.61;2052349;86;21150;-64
2021/07/11 22:59:54;;;;;;;;;;;;;;;18.31;77.38;98936.70;2054735;87;21043;-64
2021/07/11 23:02:55;;;;;;;22.80;8.20;;;;;;;18.14;77.25;98932.43;2051991;87;20434;-64
2021/07/11 23:05:56;;;;;;;22.40;7.70;;;;;;;17.97;77.58;98933.13;2052260;87;21561;-64
2021/07/11 23:08:56;;;;;;;20.17;7.62;;;;;;;17.91;77.94;98929.20;2052400;87;21090;-64
2021/07/11 23:11:57;;;;;;;19.85;7.85;;;;;;;17.94;77.99;98933.41;2052610;87;21051;-64
2021/07/11 23:14:57;;;;;;;20.80;8.15;;;;;;;17.93;78.00;98931.72;2052386;87;21011;-64
2021/07/11 23:17:57;;;;;;;19.67;7.37;;;;;;;17.94;77.68;98939.57;2052237;87;21588;-64
2021/07/11 23:20:58;;;;;;;24.75;8.83;;;;;;;18.02;77.88;98944.17;2052257;87;21502;-64
2021/07/11 23:23:58;;;;;;;19.48;7.47;;;;;;;18.05;77.63;98933.28;2052236;87;21091;-64
2021/07/11 23:26:59;;;;;;;21.62;8.23;;;;;;;18.07;77.26;98925.18;2052363;87;21058;-64
2021/07/11 23:29:59;;;;;;;22.17;8.33;;;;;;;18.08;77.19;98925.03;2052103;87;21137;-64
2021/07/11 23:32:59;;;;;;;21.65;8.98;;;;;;;18.07;77.62;98929.16;2052212;87;21026;-64
2021/07/11 23:36:00;;;;;;;19.82;7.83;;;;;;;18.03;77.55;98932.59;2052357;87;21051;-64
2021/07/11 23:39:00;;;;;;;26.33;10.18;;;;;;;17.96;77.56;98930.14;2052217;87;21517;-64
2021/07/11 23:42:01;;;;;;;22.65;9.68;;;;;;;17.92;77.75;98932.22;2052247;87;20999;-64
2021/07/11 23:45:01;;;;;;;23.55;10.13;;;;;;;17.84;77.80;98916.11;2052227;87;21051;-64
2021/07/11 23:48:02;;;;;;;23.15;9.28;;;;;;;17.87;77.94;98912.35;2052930;87;21024;-64
2021/07/11 23:51:02;;;;;;;26.00;9.58;;;;;;;17.83;77.68;98909.98;2052236;87;20991;-64
2021/07/11 23:54:02;;;;;;;21.62;8.10;;;;;;;17.79;77.71;98911.73;2052332;87;21047;-64
2021/07/11 23:57:03;;;;;;;18.32;5.67;;;;;;;17.72;77.47;98919.88;2052243;87;21522;-64
